Terminal Aerodrome Forecast
Issued by NWS Cleveland, OH

Home | Current Version | Previous Version | Graphics & Text | Print | Product List | Glossary On
Versions: 1 2 3 4 5 6 7 8 9 10 11 12 13 14 15 16 17 18 19
000
FTUS41 KCLE 261130
TAFERI
TAF
KERI 261130Z 2612/2712 VRB06KT P6SM SCT003 BKN100
      TEMPO 2612/2614 5SM BR BKN003
     FM261400 32009KT 6SM BR VCSH BKN008
     FM261600 03014G20KT 6SM BR OVC010
     FM270300 04010KT P6SM BKN020
     FM270600 05007KT P6SM SCT025=

USA.gov is the U.S. government's official web portal to all federal, state and local government web resources and services.